createdAt,value
2019-04-16T00:01:47.258Z,9.37
2019-04-16T00:04:34.898Z,9.50
2019-04-16T00:07:25.090Z,9.10
2019-04-16T00:10:31.614Z,9.23
2019-04-16T00:13:11.801Z,9.60
2019-04-16T00:15:42.084Z,8.70
2019-04-16T00:18:11.991Z,10.40
2019-04-16T00:21:06.323Z,10.00
2019-04-16T00:23:49.898Z,9.97
2019-04-16T00:26:19.782Z,8.90
2019-04-16T00:28:49.588Z,10.00
2019-04-16T00:31:19.500Z,9.50
2019-04-16T00:33:49.210Z,9.13
2019-04-16T00:36:19.206Z,9.70
2019-04-16T00:38:53.814Z,8.10
2019-04-16T00:41:20.380Z,9.83
2019-04-16T00:43:50.181Z,8.30
2019-04-16T00:46:19.883Z,9.07
2019-04-16T00:48:49.694Z,9.77
2019-04-16T00:51:19.523Z,9.93
2019-04-16T00:53:49.336Z,8.87
2019-04-16T00:56:19.111Z,8.50
2019-04-16T00:58:51.986Z,8.77
2019-04-16T01:01:20.842Z,10.30
2019-04-16T01:03:50.615Z,9.17
2019-04-16T01:06:20.729Z,8.70
2019-04-16T01:08:54.764Z,9.73
2019-04-16T01:11:21.851Z,10.07
2019-04-16T01:13:53.211Z,9.30
2019-04-16T01:16:22.922Z,8.93
2019-04-16T01:18:53.058Z,10.77
2019-04-16T01:21:23.184Z,8.63
2019-04-16T01:23:52.898Z,9.13
2019-04-16T01:26:24.217Z,10.20
2019-04-16T01:29:02.944Z,8.30
2019-04-16T01:31:53.843Z,9.80
2019-04-16T01:34:41.434Z,8.50
2019-04-16T01:37:36.061Z,9.50
2019-04-16T01:40:07.127Z,8.80
2019-04-16T01:42:36.850Z,8.60
2019-04-16T01:45:07.375Z,9.20
2019-04-16T01:47:37.308Z,10.00
2019-04-16T01:50:07.695Z,8.80
2019-04-16T01:52:37.418Z,10.10
2019-04-16T01:55:07.181Z,9.50
2019-04-16T01:57:37.010Z,9.50
2019-04-16T02:00:08.737Z,8.97
2019-04-16T02:02:38.777Z,10.97
2019-04-16T02:05:08.686Z,9.57
2019-04-16T02:07:38.320Z,9.47
2019-04-16T02:10:08.621Z,8.87
2019-04-16T02:12:38.656Z,9.30
2019-04-16T02:15:08.989Z,9.20
2019-04-16T02:17:38.696Z,9.07
2019-04-16T02:20:08.660Z,9.23
2019-04-16T02:22:38.282Z,9.83
2019-04-16T02:25:08.463Z,9.80
2019-04-16T02:27:38.148Z,10.17
2019-04-16T02:30:07.823Z,9.70
2019-04-16T02:32:37.634Z,10.50
2019-04-16T02:35:07.948Z,9.10
2019-04-16T02:37:37.746Z,10.43
2019-04-16T02:40:08.272Z,9.97
2019-04-16T02:42:37.917Z,9.53
2019-04-16T02:45:08.224Z,9.50
2019-04-16T02:47:41.756Z,9.57
2019-04-16T02:50:13.086Z,9.27
2019-04-16T02:53:14.060Z,8.80
2019-04-16T02:56:00.823Z,10.00
2019-04-16T02:58:35.342Z,9.97
2019-04-16T03:01:33.373Z,10.63
2019-04-16T03:04:07.597Z,11.63
2019-04-16T03:06:37.286Z,11.10
2019-04-16T03:09:09.176Z,10.83
2019-04-16T03:11:39.009Z,10.47
2019-04-16T03:14:09.136Z,10.90
2019-04-16T03:17:11.782Z,9.93
2019-04-16T03:19:43.259Z,9.47
2019-04-16T03:22:12.902Z,10.50
2019-04-16T03:24:42.813Z,11.70
2019-04-16T03:27:12.515Z,10.53
2019-04-16T03:29:42.204Z,10.73
2019-04-16T03:32:14.243Z,10.43
2019-04-16T03:34:43.831Z,11.40
2019-04-16T03:37:13.998Z,12.70
2019-04-16T03:39:44.902Z,11.50
2019-04-16T03:42:14.624Z,12.10
2019-04-16T03:44:44.478Z,11.07
2019-04-16T03:47:15.701Z,11.80
2019-04-16T03:49:45.729Z,11.73
2019-04-16T03:52:15.372Z,11.43
2019-04-16T03:54:45.445Z,11.20
2019-04-16T03:57:15.209Z,9.83
2019-04-16T03:59:44.786Z,12.77
2019-04-16T04:02:15.567Z,11.40
2019-04-16T04:04:45.812Z,10.23
2019-04-16T04:07:15.504Z,10.90
2019-04-16T04:09:45.844Z,12.33
2019-04-16T04:12:16.179Z,10.37
2019-04-16T04:14:47.259Z,10.77
2019-04-16T04:17:17.105Z,12.13
2019-04-16T04:19:46.901Z,10.70
2019-04-16T04:22:16.920Z,11.30
2019-04-16T04:24:46.622Z,12.20
2019-04-16T04:27:19.212Z,11.90
2019-04-16T04:29:48.021Z,11.87
2019-04-16T04:32:18.415Z,12.27
2019-04-16T04:34:49.438Z,11.70
2019-04-16T04:37:19.194Z,12.57
2019-04-16T04:39:49.226Z,13.17
2019-04-16T04:42:19.636Z,12.83
2019-04-16T04:44:49.621Z,12.73
2019-04-16T04:47:20.189Z,11.93
2019-04-16T04:49:50.362Z,11.90
2019-04-16T04:52:19.888Z,11.80
2019-04-16T04:54:51.352Z,13.70
2019-04-16T04:57:21.951Z,13.30
2019-04-16T04:59:51.584Z,11.70
2019-04-16T05:02:21.282Z,12.30
2019-04-16T05:05:02.109Z,12.70
2019-04-16T05:07:32.049Z,11.97
2019-04-16T05:10:04.558Z,12.30
2019-04-16T05:12:33.473Z,13.37
2019-04-16T05:15:03.963Z,13.30
2019-04-16T05:17:35.479Z,13.33
2019-04-16T05:20:05.335Z,12.27
2019-04-16T05:22:34.927Z,12.70
2019-04-16T05:25:04.845Z,13.03
2019-04-16T05:27:37.415Z,12.80
2019-04-16T05:30:06.376Z,13.33
2019-04-16T05:32:36.014Z,12.97
2019-04-16T05:35:09.292Z,13.47
2019-04-16T05:37:37.317Z,13.40
2019-04-16T05:40:07.003Z,12.23
2019-04-16T05:42:36.983Z,11.50
2019-04-16T06:00:52.894Z,14.20
2019-04-16T06:08:22.271Z,14.33
2019-04-16T06:25:00.112Z,13.70
2019-04-16T08:07:58.386Z,7.87
2019-04-16T08:10:28.007Z,8.05
2019-04-16T08:13:16.694Z,7.85
2019-04-16T08:26:11.335Z,8.90
2019-04-16T09:00:55.661Z,9.00
2019-04-16T09:05:55.576Z,8.80
2019-04-16T09:08:38.045Z,8.08
2019-04-16T09:11:21.753Z,8.53
2019-04-16T09:16:15.294Z,9.40
2019-04-16T09:24:08.794Z,9.95
2019-04-16T09:26:48.947Z,9.38
2019-04-16T09:29:40.686Z,9.10
2019-04-16T09:32:27.466Z,9.13
2019-04-16T09:35:10.769Z,8.70
2019-04-16T09:37:52.541Z,8.67
2019-04-16T09:40:40.248Z,9.77
2019-04-16T09:43:17.588Z,10.00
2019-04-16T09:48:12.418Z,11.90
2019-04-16T09:53:12.478Z,14.50
2019-04-16T09:55:42.005Z,15.40
2019-04-16T10:08:35.886Z,14.80
2019-04-16T10:11:06.505Z,13.40
2019-04-16T10:16:06.581Z,13.80
2019-04-16T10:18:36.293Z,13.75
2019-04-16T10:21:06.196Z,13.60
2019-04-16T10:23:45.412Z,13.15
2019-04-16T10:26:15.227Z,13.10
2019-04-16T17:17:12.231Z,4.90
2019-04-16T17:19:29.398Z,4.10
2019-04-16T17:29:24.923Z,2.80
2019-04-16T17:31:54.591Z,2.60
2019-04-16T17:42:05.777Z,3.20
2019-04-16T17:44:53.182Z,3.50
2019-04-16T17:47:33.655Z,3.17
2019-04-16T17:50:15.388Z,3.03
2019-04-16T17:53:03.929Z,2.90
2019-04-16T17:55:48.279Z,2.70
2019-04-16T17:58:28.183Z,3.00
2019-04-16T18:01:23.445Z,2.67
2019-04-16T18:04:10.444Z,3.00
2019-04-16T18:06:47.106Z,2.83
2019-04-16T18:09:34.539Z,2.67
2019-04-16T18:12:12.926Z,2.63
2019-04-16T18:15:08.977Z,2.63
2019-04-16T18:17:47.287Z,2.47
2019-04-16T18:20:23.940Z,2.23
2019-04-16T18:23:07.968Z,2.23
2019-04-16T18:25:57.798Z,2.60
2019-04-16T18:28:35.653Z,2.07
2019-04-16T18:31:25.334Z,2.20
2019-04-16T18:34:08.804Z,1.70
2019-04-16T18:36:46.222Z,2.17
2019-04-16T18:39:40.341Z,1.87
2019-04-16T18:42:17.499Z,2.17
2019-04-16T18:45:04.674Z,1.90
2019-04-16T18:48:08.661Z,1.83
2019-04-16T18:50:34.181Z,1.40
2019-04-16T18:53:03.810Z,1.93
2019-04-16T18:55:33.785Z,1.93
2019-04-16T18:58:03.680Z,1.80
2019-04-16T19:00:45.141Z,2.03
2019-04-16T19:03:15.779Z,1.70
2019-04-16T19:05:45.583Z,2.23
2019-04-16T19:08:15.350Z,2.30
2019-04-16T19:10:45.587Z,2.67
2019-04-16T19:13:15.357Z,2.57
2019-04-16T19:15:45.161Z,1.60
2019-04-16T19:18:19.876Z,1.63
2019-04-16T19:20:51.533Z,2.20
2019-04-16T19:23:21.455Z,2.00
2019-04-16T19:25:51.775Z,1.77
2019-04-16T19:28:23.331Z,3.10
2019-04-16T19:30:53.015Z,3.80
2019-04-16T19:33:24.590Z,2.63
2019-04-16T19:35:54.319Z,3.10
2019-04-16T19:38:24.568Z,3.33
2019-04-16T19:40:55.122Z,3.13
2019-04-16T19:43:27.928Z,2.60
2019-04-16T19:45:56.329Z,2.70
2019-04-16T19:48:35.200Z,3.37
2019-04-16T19:50:58.604Z,3.20
2019-04-16T19:53:28.358Z,2.40
2019-04-16T19:55:58.158Z,2.10
2019-04-16T19:58:28.105Z,3.00
2019-04-16T20:00:59.061Z,2.17
2019-04-16T20:03:30.455Z,2.40
2019-04-16T20:06:00.626Z,2.17
2019-04-16T20:08:34.380Z,2.60
2019-04-16T20:11:01.792Z,2.00
2019-04-16T20:13:31.722Z,2.70
2019-04-16T20:16:01.458Z,2.30
2019-04-16T20:18:31.241Z,2.80
2019-04-16T20:21:01.794Z,2.63
2019-04-16T20:23:32.380Z,2.70
2019-04-16T20:26:02.773Z,2.30
2019-04-16T20:28:32.423Z,2.10
2019-04-16T20:31:04.132Z,2.27
2019-04-16T20:33:33.462Z,2.30
2019-04-16T20:36:03.268Z,2.60
2019-04-16T20:38:33.112Z,2.80
2019-04-16T20:41:03.146Z,2.60
2019-04-16T20:43:33.001Z,2.30
2019-04-16T20:46:04.113Z,2.73
2019-04-16T20:48:34.115Z,2.20
2019-04-16T20:51:04.180Z,2.57
2019-04-16T20:53:34.158Z,2.77
2019-04-16T20:56:04.777Z,2.83
2019-04-16T20:58:34.714Z,2.53
2019-04-16T21:01:04.837Z,2.53
2019-04-16T21:03:34.489Z,2.60
2019-04-16T21:06:07.597Z,2.73
2019-04-16T21:08:36.343Z,2.80
2019-04-16T21:11:08.774Z,3.17
2019-04-16T21:13:38.437Z,3.50
2019-04-16T21:16:08.237Z,3.47
2019-04-16T21:18:38.971Z,3.80
2019-04-16T21:21:08.665Z,3.40
2019-04-16T21:23:38.499Z,2.47
2019-04-16T21:26:08.437Z,2.73
2019-04-16T21:28:43.561Z,2.77
2019-04-16T21:31:18.877Z,2.83
2019-04-16T21:33:53.312Z,3.20
2019-04-16T21:36:37.977Z,3.30
2019-04-16T21:39:17.159Z,3.03
2019-04-16T21:41:45.645Z,2.93
2019-04-16T21:44:15.425Z,3.17
2019-04-16T21:46:45.044Z,3.50
2019-04-16T21:49:15.161Z,3.80
2019-04-16T21:52:02.208Z,3.80
2019-04-16T21:54:32.597Z,4.50
2019-04-16T21:57:02.235Z,3.50
2019-04-16T21:59:32.264Z,4.07
2019-04-16T22:02:05.330Z,4.00
2019-04-16T22:04:34.686Z,5.17
2019-04-16T22:07:07.380Z,4.00
2019-04-16T22:09:36.369Z,5.47
2019-04-16T22:12:06.405Z,4.90
2019-04-16T22:14:36.100Z,5.20
2019-04-16T22:17:05.718Z,5.87
2019-04-16T22:19:35.459Z,4.50
2019-04-16T22:22:05.282Z,4.17
2019-04-16T22:24:36.820Z,4.07
2019-04-16T22:27:08.015Z,4.10
2019-04-16T22:29:38.070Z,4.00
2019-04-16T22:32:08.049Z,4.17
2019-04-16T22:34:37.948Z,3.50
2019-04-16T22:37:07.634Z,4.30
2019-04-16T22:39:56.750Z,4.17
2019-04-16T22:42:44.022Z,4.10
2019-04-16T22:45:42.141Z,3.83
2019-04-16T22:48:12.326Z,3.87
2019-04-16T22:50:42.445Z,4.23
2019-04-16T22:53:16.993Z,3.80
2019-04-16T22:55:43.896Z,4.40
2019-04-16T22:58:26.028Z,4.10
2019-04-16T23:01:00.026Z,3.97
2019-04-16T23:03:29.702Z,3.70
2019-04-16T23:06:00.962Z,3.97
2019-04-16T23:08:30.946Z,3.87
2019-04-16T23:11:00.619Z,3.70
2019-04-16T23:13:32.606Z,3.80
2019-04-16T23:16:02.191Z,3.80
2019-04-16T23:18:32.773Z,3.73
2019-04-16T23:21:02.528Z,3.47
2019-04-16T23:23:32.589Z,3.30
2019-04-16T23:26:02.293Z,3.30
2019-04-16T23:28:31.908Z,3.00
2019-04-16T23:31:01.978Z,3.30
2019-04-16T23:33:32.810Z,3.10
2019-04-16T23:36:03.734Z,3.30
2019-04-16T23:38:33.420Z,3.60
2019-04-16T23:41:03.215Z,3.40
2019-04-16T23:43:46.944Z,3.87
2019-04-16T23:46:34.661Z,4.00
2019-04-16T23:49:27.669Z,3.20
2019-04-16T23:52:03.845Z,3.43
2019-04-16T23:54:40.777Z,4.00
2019-04-16T23:57:42.365Z,3.83
